Time;durP1;ratioP1;P1;durP2;ratioP2;P2;SDS_P1;SDS_P2;PMS_P1;PMS_P2;Temp;Humidity;BMP_temperature;BMP_pressure;BME280_temperature;BME280_humidity;BME280_pressure;Samples;Min_cycle;Max_cycle;Signal;HPM_P1;HPM_P2
2022/05/16 00:00:17;;;;;;;2.67;1.52;;;22.10;51.30;;;;;;5013989;28;20026;-83
2022/05/16 00:02:43;;;;;;;3.58;1.63;;;22.10;51.20;;;;;;5012839;28;20034;-83
2022/05/16 00:05:09;;;;;;;1.95;1.50;;;22.00;51.20;;;;;;5012352;28;20027;-83
2022/05/16 00:07:36;;;;;;;1.98;1.40;;;22.00;51.20;;;;;;5014194;28;20026;-83
2022/05/16 00:10:02;;;;;;;2.83;1.48;;;22.10;51.20;;;;;;5012543;28;20041;-83
2022/05/16 00:12:28;;;;;;;2.80;1.70;;;22.10;51.30;;;;;;5029641;28;20056;-84
2022/05/16 00:14:54;;;;;;;3.08;1.70;;;22.00;51.20;;;;;;5013750;28;20364;-84
2022/05/16 00:17:19;;;;;;;1.95;1.50;;;22.10;51.20;;;;;;5014311;28;20128;-84
2022/05/16 00:19:45;;;;;;;3.08;1.80;;;22.10;51.30;;;;;;5014580;28;20466;-83
2022/05/16 00:22:11;;;;;;;2.60;1.60;;;22.10;51.10;;;;;;4996978;28;20132;-84
2022/05/16 00:24:42;;;;;;;2.95;1.50;;;22.10;51.10;;;;;;5013394;28;20030;-84
2022/05/16 00:27:08;;;;;;;2.30;1.42;;;22.10;51.20;;;;;;5028877;28;20022;-84
2022/05/16 00:29:34;;;;;;;3.35;1.80;;;22.10;51.20;;;;;;4997382;28;20057;-83
2022/05/16 00:31:59;;;;;;;2.97;1.58;;;22.10;51.20;;;;;;5014522;28;20029;-85
2022/05/16 00:34:27;;;;;;;3.83;1.70;;;22.00;51.20;;;;;;5012039;28;20034;-83
2022/05/16 00:36:54;;;;;;;2.35;1.63;;;22.10;51.30;;;;;;5013509;28;20037;-83
2022/05/16 00:39:21;;;;;;;2.53;1.70;;;22.10;51.30;;;;;;5012849;28;20029;-83
2022/05/16 00:41:48;;;;;;;2.95;1.70;;;22.10;51.20;;;;;;5013838;28;20032;-83
2022/05/16 00:44:15;;;;;;;4.47;1.48;;;22.00;51.20;;;;;;5013124;28;20037;-84
2022/05/16 00:46:41;;;;;;;4.07;2.10;;;22.10;51.20;;;;;;5011693;28;20033;-83
2022/05/16 00:49:18;;;;;;;2.75;1.48;;;22.10;51.20;;;;;;5013416;28;20029;-83
2022/05/16 00:51:49;;;;;;;2.75;1.58;;;22.00;51.10;;;;;;5013530;28;20033;-83
2022/05/16 00:54:24;;;;;;;3.38;1.58;;;22.10;51.20;;;;;;5012884;28;20026;-83
2022/05/16 00:56:55;;;;;;;2.88;1.60;;;22.00;51.10;;;;;;5013887;28;20053;-83
2022/05/16 00:59:28;;;;;;;3.25;1.92;;;22.00;51.10;;;;;;5013802;28;20108;-83
2022/05/16 01:04:48;;;;;;;3.45;1.80;;;22.00;51.10;;;;;;5011148;28;20052;-83
2022/05/16 01:07:29;;;;;;;3.03;1.50;;;22.00;51.20;;;;;;5013225;28;20026;-83
2022/05/16 01:09:56;;;;;;;;;;;22.00;51.20;;;;;;4994406;28;20069;-83
2022/05/16 01:12:36;;;;;;;3.08;1.60;;;22.00;51.20;;;;;;4993697;28;19914;-83
2022/05/16 01:15:06;;;;;;;3.67;1.65;;;22.00;51.20;;;;;;5007765;28;20105;-83
2022/05/16 01:17:32;;;;;;;2.85;1.80;;;22.00;51.20;;;;;;5008606;28;20033;-83
2022/05/16 01:19:58;;;;;;;2.50;1.60;;;22.00;51.10;;;;;;5001740;28;20018;-83
2022/05/16 01:22:41;;;;;;;4.88;1.90;;;22.00;51.20;;;;;;5012870;28;20044;-83
2022/05/16 01:25:13;;;;;;;3.45;1.80;;;22.10;51.10;;;;;;5012597;28;20061;-83
2022/05/16 01:27:41;;;;;;;2.53;1.50;;;22.10;51.20;;;;;;5011608;28;20478;-83
2022/05/16 01:30:08;;;;;;;2.10;1.63;;;22.00;51.70;;;;;;5011934;28;20057;-84
2022/05/16 01:32:33;;;;;;;3.00;1.70;;;22.10;51.10;;;;;;5012563;28;20037;-83
2022/05/16 01:34:59;;;;;;;2.40;1.70;;;22.10;51.20;;;;;;5010851;28;20029;-83
2022/05/16 01:38:18;;;;;;;2.78;1.80;;;22.10;51.70;;;;;;5012673;28;20062;-84
2022/05/16 01:40:10;;;;;;;2.60;1.45;;;22.00;51.10;;;;;;5012928;28;20026;-83
2022/05/16 01:42:36;;;;;;;3.15;1.70;;;22.00;51.10;;;;;;5010849;28;20360;-83
2022/05/16 01:45:02;;;;;;;3.70;1.70;;;22.00;51.10;;;;;;5011775;28;20029;-83
2022/05/16 01:47:28;;;;;;;2.60;1.75;;;22.00;51.20;;;;;;5011279;28;20120;-83
2022/05/16 01:49:53;;;;;;;2.50;1.60;;;22.00;51.10;;;;;;5012313;28;20109;-83
2022/05/16 01:52:19;;;;;;;3.08;1.52;;;22.00;51.20;;;;;;5011606;28;20054;-84
2022/05/16 01:54:44;;;;;;;4.25;1.90;;;22.00;51.20;;;;;;5011776;28;20391;-84
2022/05/16 01:57:10;;;;;;;3.42;1.88;;;22.00;51.20;;;;;;4994073;28;20034;-84
2022/05/16 01:59:36;;;;;;;3.50;1.60;;;22.00;51.10;;;;;;5012550;28;20082;-84
2022/05/16 02:02:01;;;;;;;3.20;1.80;;;22.00;51.20;;;;;;5012184;28;20029;-84
2022/05/16 02:04:27;;;;;;;2.40;1.60;;;22.00;51.10;;;;;;5010208;28;20029;-83
2022/05/16 02:06:53;;;;;;;2.45;1.50;;;22.00;51.20;;;;;;5011957;28;20446;-84
2022/05/16 02:09:19;;;;;;;4.43;1.67;;;22.00;51.10;;;;;;5012406;28;20501;-85
2022/05/16 02:11:44;;;;;;;3.28;1.80;;;22.00;51.20;;;;;;5011422;28;20030;-84
2022/05/16 02:14:10;;;;;;;2.72;1.75;;;22.00;51.20;;;;;;5010323;28;20030;-84
2022/05/16 02:16:36;;;;;;;3.38;1.63;;;22.00;51.20;;;;;;5011924;28;20022;-84
2022/05/16 02:19:01;;;;;;;2.40;1.48;;;22.00;51.20;;;;;;5011868;28;20066;-84
2022/05/16 02:26:55;;;;;;;4.68;1.60;;;22.00;51.10;;;;;;5012091;28;20026;-83
2022/05/16 02:29:21;;;;;;;2.90;1.70;;;22.00;51.10;;;;;;5006451;28;20037;-83
2022/05/16 02:31:47;;;;;;;4.07;1.85;;;22.00;51.00;;;;;;5009311;28;20018;-83
2022/05/16 02:34:13;;;;;;;3.95;1.50;;;22.00;51.10;;;;;;5010986;28;20018;-83
2022/05/16 02:36:39;;;;;;;3.45;1.70;;;22.00;51.10;;;;;;5027177;28;20493;-83
2022/05/16 02:39:05;;;;;;;3.13;1.52;;;22.00;51.00;;;;;;5011827;28;20066;-84
2022/05/16 02:41:30;;;;;;;2.47;1.50;;;22.00;51.10;;;;;;5011829;28;20116;-84
2022/05/16 02:43:56;;;;;;;3.38;1.80;;;22.00;51.10;;;;;;5010979;28;20095;-84
2022/05/16 02:46:23;;;;;;;2.08;1.33;;;22.00;51.40;;;;;;5010158;28;20018;-84
2022/05/16 02:48:49;;;;;;;3.22;1.63;;;22.00;51.10;;;;;;5012057;28;20034;-84
2022/05/16 02:51:14;;;;;;;2.13;1.50;;;22.00;51.10;;;;;;5011680;28;20038;-84
2022/05/16 02:53:40;;;;;;;3.47;1.60;;;22.00;51.10;;;;;;5011045;28;20109;-84
2022/05/16 02:56:06;;;;;;;2.58;1.50;;;22.00;51.10;;;;;;5011899;28;20072;-83
2022/05/16 02:58:32;;;;;;;2.40;1.63;;;22.00;51.10;;;;;;5010724;28;20547;-84
2022/05/16 03:00:58;;;;;;;2.67;1.65;;;22.00;51.10;;;;;;5011517;28;20018;-84
2022/05/16 03:03:23;;;;;;;2.38;1.45;;;22.00;51.00;;;;;;5010942;28;20037;-84
2022/05/16 03:05:49;;;;;;;2.53;1.70;;;22.00;51.00;;;;;;5011738;28;20069;-84
2022/05/16 03:08:15;;;;;;;3.75;1.75;;;22.00;51.10;;;;;;5011669;28;20109;-84
2022/05/16 03:10:41;;;;;;;2.60;1.63;;;22.00;51.10;;;;;;5011001;28;20371;-84
2022/05/16 03:13:07;;;;;;;3.03;1.88;;;22.00;51.10;;;;;;5009035;28;20049;-83
2022/05/16 03:15:32;;;;;;;3.25;1.90;;;22.00;51.40;;;;;;5011392;28;20113;-84
2022/05/16 03:17:58;;;;;;;3.17;1.83;;;22.00;51.10;;;;;;5010017;28;20057;-84
2022/05/16 03:20:24;;;;;;;3.42;1.70;;;22.00;51.00;;;;;;5010581;28;20026;-85
2022/05/16 03:22:50;;;;;;;2.67;1.65;;;22.00;51.10;;;;;;5010537;28;20092;-85
2022/05/16 03:25:15;;;;;;;2.60;1.80;;;22.00;51.00;;;;;;5011775;28;20112;-84
2022/05/16 03:27:41;;;;;;;3.47;1.80;;;22.00;51.10;;;;;;5009617;28;20026;-84
2022/05/16 03:30:09;;;;;;;2.65;1.73;;;22.00;51.00;;;;;;5011575;28;20026;-84
2022/05/16 03:32:35;;;;;;;2.45;1.75;;;22.00;51.00;;;;;;4993793;28;20104;-84
2022/05/16 03:35:01;;;;;;;3.08;2.10;;;22.00;51.00;;;;;;5010873;28;20087;-84
2022/05/16 03:37:26;;;;;;;3.30;1.95;;;22.00;51.00;;;;;;5010092;28;20113;-83
2022/05/16 03:42:36;;;;;;;3.45;1.98;;;22.00;51.00;;;;;;5013474;28;20546;-83
2022/05/16 03:45:04;;;;;;;3.75;1.75;;;22.00;51.00;;;;;;5012742;28;20026;-83
2022/05/16 03:47:30;;;;;;;3.95;1.90;;;22.00;51.00;;;;;;4997068;28;20038;-84
2022/05/16 03:49:56;;;;;;;3.40;2.00;;;22.00;51.10;;;;;;5013331;28;20041;-83
2022/05/16 03:52:21;;;;;;;2.67;1.73;;;22.00;51.00;;;;;;5013543;28;20140;-84
2022/05/16 03:54:47;;;;;;;3.08;1.77;;;22.00;51.00;;;;;;5012745;28;20030;-83
2022/05/16 03:57:13;;;;;;;4.35;1.88;;;22.00;51.00;;;;;;5014930;28;20064;-84
2022/05/16 03:59:38;;;;;;;2.25;1.60;;;22.00;51.10;;;;;;5013555;28;20033;-83
2022/05/16 04:02:05;;;;;;;4.22;1.92;;;22.00;51.00;;;;;;5030001;28;20430;-84
2022/05/16 04:04:32;;;;;;;3.05;1.60;;;22.00;51.00;;;;;;5012665;28;20389;-84
2022/05/16 04:06:57;;;;;;;3.22;1.80;;;22.00;51.00;;;;;;5013337;28;20033;-84
2022/05/16 04:09:23;;;;;;;3.88;2.17;;;21.90;51.00;;;;;;5014438;28;20030;-84
2022/05/16 04:11:49;;;;;;;3.20;1.75;;;22.00;51.70;;;;;;5015837;28;20107;-86
2022/05/16 04:14:15;;;;;;;3.45;2.15;;;21.90;51.00;;;;;;5014988;28;20021;-84
2022/05/16 04:16:41;;;;;;;3.70;2.05;;;22.00;51.00;;;;;;5012434;28;20402;-84
2022/05/16 04:19:10;;;;;;;3.17;1.95;;;21.90;51.00;;;;;;5015294;28;20029;-83
2022/05/16 04:21:37;;;;;;;3.40;1.83;;;21.90;51.00;;;;;;5016328;28;20467;-83
2022/05/16 04:24:05;;;;;;;3.10;1.80;;;22.00;51.00;;;;;;5013462;28;20160;-83
2022/05/16 04:26:31;;;;;;;3.22;1.92;;;21.90;50.90;;;;;;5015553;28;20532;-84
2022/05/16 04:28:57;;;;;;;3.47;2.05;;;22.00;51.10;;;;;;5014898;28;20483;-84
2022/05/16 04:31:24;;;;;;;2.20;1.70;;;22.00;50.90;;;;;;5014820;28;20080;-84
2022/05/16 04:33:49;;;;;;;5.15;2.10;;;22.00;51.00;;;;;;5011799;28;20108;-86
2022/05/16 04:36:15;;;;;;;3.92;2.10;;;22.00;50.90;;;;;;5014584;28;20491;-84
2022/05/16 04:38:41;;;;;;;3.58;2.08;;;22.00;51.00;;;;;;5014108;28;20038;-81
2022/05/16 04:43:52;;;;;;;4.07;1.85;;;22.00;50.90;;;;;;5014073;28;20028;-82
2022/05/16 04:46:18;;;;;;;3.58;1.98;;;22.00;50.90;;;;;;5015108;28;20022;-82
2022/05/16 04:48:44;;;;;;;4.18;1.88;;;22.00;51.00;;;;;;5012888;28;20421;-82
2022/05/16 04:51:10;;;;;;;3.83;2.17;;;22.00;50.90;;;;;;5012107;28;20034;-83
2022/05/16 04:53:36;;;;;;;2.95;2.00;;;22.00;50.90;;;;;;5012824;28;20037;-83
2022/05/16 04:56:04;;;;;;;3.20;1.98;;;22.00;51.00;;;;;;5014228;28;20109;-82
2022/05/16 04:58:32;;;;;;;3.90;1.92;;;22.00;51.00;;;;;;5013033;28;20026;-82
2022/05/16 05:00:57;;;;;;;4.20;1.88;;;21.90;50.90;;;;;;5030196;28;20501;-82
2022/05/16 05:03:23;;;;;;;4.05;2.33;;;22.00;50.90;;;;;;5012067;28;20026;-82
2022/05/16 05:05:49;;;;;;;3.75;2.10;;;22.00;50.90;;;;;;5010772;28;20022;-82
2022/05/16 05:08:14;;;;;;;3.33;1.88;;;22.00;50.90;;;;;;5013722;28;20030;-82
2022/05/16 05:16:17;;;;;;;3.25;1.95;;;22.00;50.90;;;;;;5015603;28;20450;-82
2022/05/16 05:18:43;;;;;;;4.32;2.00;;;21.90;50.90;;;;;;5014945;28;20034;-82
2022/05/16 05:21:10;;;;;;;3.05;1.95;;;22.00;50.90;;;;;;5012027;28;20372;-82
2022/05/16 05:23:38;;;;;;;2.38;1.73;;;21.90;50.90;;;;;;5009701;28;20475;-83
2022/05/16 05:26:05;;;;;;;2.92;1.92;;;22.00;50.90;;;;;;5013752;28;20105;-82
2022/05/16 05:28:32;;;;;;;3.45;1.92;;;22.00;50.90;;;;;;5015442;28;20168;-82
2022/05/16 05:30:59;;;;;;;3.15;1.83;;;21.90;50.90;;;;;;5015681;28;20029;-82
2022/05/16 05:33:25;;;;;;;2.50;1.60;;;22.00;50.90;;;;;;5013370;28;20034;-84
2022/05/16 05:35:51;;;;;;;4.93;1.90;;;22.00;50.90;;;;;;5032606;28;20044;-81
2022/05/16 05:38:18;;;;;;;3.00;1.90;;;22.00;50.90;;;;;;5013778;28;20022;-82
2022/05/16 05:40:44;;;;;;;2.90;1.98;;;22.00;50.90;;;;;;5028126;28;20026;-81
2022/05/16 05:43:10;;;;;;;3.55;2.35;;;22.00;50.90;;;;;;5027031;28;20483;-82
2022/05/16 05:45:37;;;;;;;4.47;2.08;;;22.00;50.90;;;;;;5012992;28;20033;-82
2022/05/16 05:48:04;;;;;;;4.63;2.15;;;22.00;50.90;;;;;;5011420;28;20441;-82
2022/05/16 05:50:30;;;;;;;4.45;2.15;;;22.00;50.80;;;;;;5011209;28;20022;-82
2022/05/16 05:52:57;;;;;;;5.43;2.53;;;22.00;50.80;;;;;;5009455;28;20026;-83
2022/05/16 05:55:23;;;;;;;3.30;2.20;;;22.00;50.80;;;;;;5012219;28;20033;-82
2022/05/16 05:57:49;;;;;;;3.42;1.85;;;22.00;50.80;;;;;;5012325;28;20088;-84
2022/05/16 06:00:15;;;;;;;5.72;2.10;;;22.00;50.80;;;;;;5013011;28;20026;-85
2022/05/16 06:02:41;;;;;;;3.88;2.00;;;22.00;50.80;;;;;;5010882;28;20063;-85
2022/05/16 06:05:11;;;;;;;4.18;2.33;;;22.00;50.80;;;;;;5011168;28;20026;-86
2022/05/16 06:07:37;;;;;;;3.88;2.05;;;22.00;50.80;;;;;;5010332;28;20034;-87
2022/05/16 06:10:04;;;;;;;4.35;2.20;;;22.00;50.80;;;;;;5011919;28;20029;-86
2022/05/16 06:12:30;;;;;;;3.53;1.92;;;22.00;50.80;;;;;;5011588;28;20033;-87
2022/05/16 06:14:56;;;;;;;4.53;2.42;;;22.00;50.80;;;;;;5012250;28;20030;-86
2022/05/16 06:17:22;;;;;;;5.25;2.65;;;22.00;50.80;;;;;;5011579;28;20394;-86
2022/05/16 06:19:48;;;;;;;3.50;2.17;;;22.00;50.70;;;;;;5011908;28;20513;-87
2022/05/16 06:22:14;;;;;;;2.80;1.92;;;22.00;50.70;;;;;;5011820;28;20026;-86
2022/05/16 06:27:28;;;;;;;4.00;2.20;;;22.00;50.80;;;;;;5012700;28;20036;-87
2022/05/16 06:29:58;;;;;;;3.85;2.20;;;22.00;50.70;;;;;;5012787;28;20062;-86
2022/05/16 06:32:24;;;;;;;3.00;1.75;;;22.00;50.70;;;;;;5012599;28;20040;-86
2022/05/16 06:34:51;;;;;;;4.93;2.50;;;22.00;50.70;;;;;;5011528;28;20037;-85
2022/05/16 06:37:18;;;;;;;3.60;2.30;;;22.00;50.70;;;;;;5011975;28;20037;-85
2022/05/16 06:39:45;;;;;;;4.15;2.30;;;22.00;50.70;;;;;;4995196;28;20077;-85
2022/05/16 06:42:11;;;;;;;3.30;2.20;;;22.00;50.70;;;;;;5010374;28;20237;-85
2022/05/16 06:44:37;;;;;;;4.53;2.58;;;22.00;50.70;;;;;;5011212;28;20022;-86
2022/05/16 06:47:03;;;;;;;3.60;2.10;;;22.00;50.70;;;;;;5012223;28;20049;-86
2022/05/16 06:49:29;;;;;;;3.78;2.30;;;22.00;50.70;;;;;;5012207;28;20080;-85
2022/05/16 06:51:54;;;;;;;3.70;2.28;;;22.00;50.60;;;;;;5012279;28;20030;-85
2022/05/16 06:54:20;;;;;;;4.47;2.67;;;22.00;50.60;;;;;;5011136;28;20034;-85
2022/05/16 06:56:46;;;;;;;3.85;2.33;;;22.00;50.70;;;;;;5010473;28;20022;-85
2022/05/16 06:59:12;;;;;;;4.47;2.60;;;22.00;50.70;;;;;;5010781;28;20057;-86
2022/05/16 07:01:37;;;;;;;5.07;2.67;;;22.00;50.70;;;;;;5008046;28;20053;-85
2022/05/16 07:04:04;;;;;;;3.63;2.30;;;22.00;50.70;;;;;;5011421;28;20018;-86
2022/05/16 07:06:31;;;;;;;3.58;2.30;;;22.00;50.70;;;;;;5011335;28;20105;-86
2022/05/16 07:08:56;;;;;;;4.55;2.33;;;22.00;50.60;;;;;;5012318;28;20029;-86
2022/05/16 07:11:22;;;;;;;4.60;2.53;;;22.00;50.70;;;;;;5011957;28;20100;-85
2022/05/16 07:13:48;;;;;;;4.03;2.20;;;22.00;50.70;;;;;;5007122;28;20022;-86
2022/05/16 07:16:14;;;;;;;5.18;2.55;;;22.00;50.70;;;;;;5014371;28;20097;-87
2022/05/16 07:18:39;;;;;;;3.95;2.38;;;22.00;51.20;;;;;;5016270;28;20056;-86
2022/05/16 07:21:06;;;;;;;3.67;2.15;;;22.10;50.70;;;;;;5016084;28;20033;-86
2022/05/16 07:23:32;;;;;;;4.13;2.50;;;22.00;50.70;;;;;;5014320;28;20030;-87
2022/05/16 07:28:42;;;;;;;4.97;2.50;;;22.10;50.80;;;;;;5015004;28;20026;-87
2022/05/16 07:31:09;;;;;;;4.43;2.60;;;22.10;50.80;;;;;;5014596;28;20531;-87
2022/05/16 07:33:35;;;;;;;4.57;2.53;;;22.10;50.80;;;;;;5014543;28;20040;-87
2022/05/16 07:36:00;;;;;;;3.90;2.30;;;22.10;50.80;;;;;;5014403;28;20041;-87
2022/05/16 07:38:26;;;;;;;3.78;2.38;;;22.10;50.70;;;;;;5015592;28;20050;-86
2022/05/16 07:40:53;;;;;;;5.25;2.50;;;22.10;50.70;;;;;;5015736;28;20025;-86
2022/05/16 07:43:19;;;;;;;3.60;2.22;;;22.10;50.90;;;;;;4996680;28;20022;-87
2022/05/16 07:45:45;;;;;;;4.55;2.45;;;22.10;50.70;;;;;;5031019;28;20066;-87
2022/05/16 07:48:12;;;;;;;3.88;2.30;;;22.10;50.80;;;;;;5014097;28;20065;-87
2022/05/16 07:50:41;;;;;;;4.55;1.90;;;22.10;50.90;;;;;;5014185;28;20044;-86
2022/05/16 07:53:12;;;;;;;4.05;2.38;;;22.10;50.80;;;;;;5014760;28;20072;-86
2022/05/16 07:55:51;;;;;;;3.97;2.40;;;22.10;50.90;;;;;;5015152;28;20037;-86
2022/05/16 07:58:16;;;;;;;4.60;2.53;;;22.10;50.90;;;;;;5011964;28;20097;-86
2022/05/16 08:00:43;;;;;;;3.97;2.40;;;22.10;50.90;;;;;;5013335;28;20439;-86
2022/05/16 08:03:13;;;;;;;3.85;2.20;;;22.10;50.90;;;;;;5014344;28;20478;-86
2022/05/16 08:05:39;;;;;;;3.85;2.35;;;22.10;50.90;;;;;;5013770;28;20022;-86
2022/05/16 08:10:49;;;;;;;3.83;2.35;;;22.10;50.80;;;;;;5014994;28;20052;-86
2022/05/16 08:13:15;;;;;;;4.30;2.30;;;22.10;50.90;;;;;;5012860;28;20101;-86
2022/05/16 08:15:42;;;;;;;4.95;2.35;;;22.10;50.90;;;;;;5014965;28;20041;-86
2022/05/16 08:18:10;;;;;;;3.72;2.15;;;22.10;50.90;;;;;;5014825;28;20491;-85
2022/05/16 08:20:37;;;;;;;3.20;1.83;;;22.10;50.90;;;;;;5013676;28;20057;-85
2022/05/16 08:23:04;;;;;;;3.58;2.10;;;22.10;51.00;;;;;;5012940;28;20690;-85
2022/05/16 08:25:30;;;;;;;3.55;2.13;;;22.10;50.90;;;;;;5014332;28;20022;-86
2022/05/16 08:27:56;;;;;;;4.68;2.42;;;22.10;51.00;;;;;;5012248;28;20029;-86
2022/05/16 08:30:24;;;;;;;3.70;2.22;;;22.10;51.00;;;;;;5013841;28;20528;-86
2022/05/16 08:32:50;;;;;;;5.15;2.47;;;22.10;50.90;;;;;;4996023;28;20029;-86
2022/05/16 08:35:18;;;;;;;3.95;2.00;;;22.10;50.90;;;;;;5013894;28;20037;-86
2022/05/16 08:40:38;;;;;;;2.78;2.10;;;22.10;50.90;;;;;;5014858;28;20414;-86
2022/05/16 08:43:27;;;;;;;4.78;2.22;;;22.10;51.00;;;;;;5012927;28;20033;-87
2022/05/16 08:46:31;;;;;;;5.80;2.35;;;22.10;51.00;;;;;;4997384;28;20064;-86
2022/05/16 08:49:05;;;;;;;3.75;2.20;;;22.10;51.00;;;;;;5022642;28;20042;-87
2022/05/16 08:51:33;;;;;;;3.85;2.03;;;22.10;51.10;;;;;;5014370;28;20026;-86
2022/05/16 08:54:10;;;;;;;3.75;2.13;;;22.10;51.20;;;;;;5012155;28;20033;-86
2022/05/16 08:56:39;;;;;;;3.50;2.17;;;22.10;51.70;;;;;;4996797;28;20049;-86
2022/05/16 08:59:09;;;;;;;4.15;2.22;;;22.10;51.00;;;;;;5012708;28;20052;-86
2022/05/16 09:01:39;;;;;;;4.07;2.22;;;22.10;51.10;;;;;;5012227;28;20036;-86
2022/05/16 09:04:24;;;;;;;3.08;1.85;;;22.10;51.10;;;;;;5013612;28;20065;-85
2022/05/16 09:07:05;;;;;;;3.47;1.95;;;22.10;51.10;;;;;;5013937;28;20026;-86
2022/05/16 09:09:50;;;;;;;3.70;2.00;;;22.10;51.00;;;;;;5012466;28;20626;-86
2022/05/16 09:12:23;;;;;;;3.63;2.30;;;22.10;51.10;;;;;;5012809;28;20061;-86
2022/05/16 09:15:01;;;;;;;3.58;2.30;;;22.20;51.10;;;;;;5013535;28;20033;-86
2022/05/16 09:17:48;;;;;;;2.83;1.92;;;22.20;51.30;;;;;;5011087;28;20029;-86
2022/05/16 09:20:23;;;;;;;3.05;2.00;;;22.20;51.20;;;;;;5013937;28;20463;-86
2022/05/16 09:22:57;;;;;;;3.80;2.20;;;22.20;51.20;;;;;;5011509;28;20028;-86
2022/05/16 09:25:28;;;;;;;3.40;2.08;;;22.10;51.20;;;;;;5013541;28;20506;-86
2022/05/16 09:30:46;;;;;;;3.90;2.30;;;22.10;51.20;;;;;;5013435;28;20030;-86
2022/05/16 09:33:17;;;;;;;3.63;2.03;;;22.10;51.20;;;;;;5012029;28;20312;-86
2022/05/16 09:35:52;;;;;;;4.20;2.10;;;22.10;51.20;;;;;;5011575;28;20064;-86
2022/05/16 09:38:19;;;;;;;3.97;2.10;;;22.20;51.30;;;;;;5013124;28;20536;-86
2022/05/16 09:41:01;;;;;;;4.55;2.42;;;22.10;51.20;;;;;;5013399;28;20479;-86
2022/05/16 09:43:39;;;;;;;3.85;2.17;;;22.20;51.30;;;;;;5011648;28;20037;-86
2022/05/16 09:48:43;;;;;;;3.47;1.90;;;22.10;51.30;;;;;;4998490;28;20108;-77
2022/05/16 09:51:09;;;;;;;3.28;1.98;;;22.10;51.30;;;;;;4998357;28;20395;-77
2022/05/16 09:53:45;;;;;;;3.88;2.20;;;22.10;51.30;;;;;;5006911;28;20084;-77
2022/05/16 09:56:24;;;;;;;3.17;1.98;;;22.10;51.30;;;;;;5002802;28;20518;-77
2022/05/16 09:58:55;;;;;;;3.38;2.10;;;22.20;51.40;;;;;;5047028;28;20034;-77
2022/05/16 10:01:31;;;;;;;3.47;1.92;;;22.10;51.20;;;;;;5032087;28;20404;-77
2022/05/16 10:04:17;;;;;;;3.22;2.05;;;22.10;51.40;;;;;;5026157;28;20025;-78
2022/05/16 10:07:00;;;;;;;2.83;1.92;;;22.10;51.40;;;;;;5023408;28;20032;-77
2022/05/16 10:09:40;;;;;;;2.95;2.00;;;22.10;51.50;;;;;;5030538;28;20025;-78
2022/05/16 10:12:09;;;;;;;3.42;2.22;;;22.10;51.40;;;;;;5032026;28;20082;-78
2022/05/16 10:14:37;;;;;;;3.15;2.10;;;22.10;51.40;;;;;;5029344;28;20417;-78
2022/05/16 10:17:05;;;;;;;3.00;1.73;;;22.10;51.50;;;;;;5030174;28;20033;-77
2022/05/16 10:19:32;;;;;;;4.13;2.05;;;22.10;51.50;;;;;;5027768;28;20434;-78
2022/05/16 10:22:05;;;;;;;4.15;2.08;;;22.10;51.40;;;;;;5002405;28;20053;-78
2022/05/16 10:24:37;;;;;;;3.08;2.00;;;22.10;51.30;;;;;;5027246;28;20029;-78
2022/05/16 10:27:07;;;;;;;2.88;1.90;;;22.10;51.40;;;;;;5030161;28;20418;-78
2022/05/16 10:29:40;;;;;;;3.45;2.10;;;22.20;51.40;;;;;;5031376;28;20033;-78
2022/05/16 10:35:47;;;;;;;3.33;1.80;;;22.20;51.40;;;;;;5026977;28;20037;-78
2022/05/16 10:38:32;;;;;;;3.67;1.98;;;22.20;51.30;;;;;;5000269;28;20029;-79
2022/05/16 10:41:00;;;;;;;2.88;1.75;;;22.20;51.50;;;;;;4990792;28;20050;-79
2022/05/16 10:44:08;;;;;;;3.83;2.20;;;22.10;51.40;;;;;;4974056;28;20053;-78
2022/05/16 10:46:38;;;;;;;3.70;1.90;;;22.10;51.40;;;;;;4996022;28;20108;-79
2022/05/16 10:49:11;;;;;;;3.05;1.80;;;22.20;51.50;;;;;;5031258;28;20026;-79
2022/05/16 10:51:43;;;;;;;2.75;1.63;;;22.10;51.40;;;;;;5060050;28;20056;-78
2022/05/16 10:54:24;;;;;;;3.20;1.98;;;22.20;51.50;;;;;;5067918;28;20028;-80
2022/05/16 10:57:06;;;;;;;3.60;2.13;;;22.20;51.40;;;;;;5075203;28;20032;-79
2022/05/16 10:59:57;;;;;;;3.42;2.10;;;22.20;51.40;;;;;;5073848;28;20339;-79
2022/05/16 11:02:58;;;;;;;2.55;1.50;;;22.10;51.30;;;;;;5074070;28;20021;-79
2022/05/16 11:05:39;;;;;;;3.63;2.08;;;22.10;51.40;;;;;;5057424;28;20111;-80
2022/05/16 11:08:16;;;;;;;3.63;2.00;;;22.10;51.50;;;;;;5062020;28;20086;-79
2022/05/16 11:10:51;;;;;;;4.20;2.13;;;22.10;51.70;;;;;;5066383;28;20079;-80
2022/05/16 11:13:36;;;;;;;3.63;2.20;;;22.10;51.50;;;;;;5060981;28;20028;-80
2022/05/16 11:16:04;;;;;;;3.30;2.08;;;22.10;51.40;;;;;;5034859;28;20040;-80
2022/05/16 11:18:54;;;;;;;3.67;1.90;;;22.10;51.40;;;;;;5034491;28;20034;-79
2022/05/16 11:21:51;;;;;;;2.50;1.60;;;22.10;51.90;;;;;;5034986;28;20030;-79
2022/05/16 11:24:36;;;;;;;2.80;1.70;;;22.10;51.40;;;;;;5059578;28;20053;-80
2022/05/16 11:27:24;;;;;;;2.80;1.90;;;22.10;51.30;;;;;;5050138;28;20048;-80
2022/05/16 11:30:13;;;;;;;2.90;1.83;;;22.10;51.40;;;;;;5034721;28;20398;-79
2022/05/16 11:32:45;;;;;;;3.78;2.08;;;22.10;51.30;;;;;;5034485;28;20029;-80
2022/05/16 11:35:27;;;;;;;3.13;2.05;;;22.20;51.40;;;;;;5034072;28;20112;-79
2022/05/16 11:38:11;;;;;;;3.13;2.08;;;22.20;51.40;;;;;;5032906;28;20600;-79
2022/05/16 11:40:55;;;;;;;3.13;1.85;;;22.10;51.30;;;;;;5061646;28;20033;-79
2022/05/16 11:43:28;;;;;;;2.53;1.85;;;22.10;51.30;;;;;;5073508;28;20508;-78
2022/05/16 11:46:13;;;;;;;2.42;1.83;;;22.20;51.40;;;;;;5074168;28;20046;-79
2022/05/16 11:48:52;;;;;;;2.63;1.70;;;22.10;51.30;;;;;;5074186;28;20032;-78
2022/05/16 11:51:49;;;;;;;3.50;1.80;;;22.10;51.30;;;;;;5074494;28;20496;-78
2022/05/16 11:54:19;;;;;;;2.60;1.70;;;22.20;51.40;;;;;;5073120;28;20025;-78
2022/05/16 12:02:28;;;;;;;2.53;1.75;;;22.20;51.40;;;;;;5072618;28;20032;-78
2022/05/16 12:05:20;;;;;;;3.22;1.88;;;22.20;51.30;;;;;;5059495;28;20543;-78
2022/05/16 12:07:52;;;;;;;2.80;1.88;;;22.10;51.40;;;;;;5052895;28;20032;-78
2022/05/16 12:10:25;;;;;;;4.20;2.08;;;22.10;51.40;;;;;;5074042;28;20035;-78
2022/05/16 12:13:12;;;;;;;2.65;1.90;;;22.10;51.40;;;;;;5071626;28;20103;-79
2022/05/16 12:15:38;;;;;;;3.33;1.90;;;22.10;51.40;;;;;;5066906;28;20039;-78
2022/05/16 12:18:26;;;;;;;3.08;1.92;;;22.10;51.30;;;;;;5066360;28;20536;-79
2022/05/16 12:21:12;;;;;;;3.05;1.90;;;22.20;51.50;;;;;;5073588;28;20112;-79
2022/05/16 12:23:49;;;;;;;2.95;1.98;;;22.10;51.40;;;;;;5072610;28;20303;-79
2022/05/16 12:26:27;;;;;;;3.38;1.88;;;22.10;51.50;;;;;;5073799;28;20055;-79
2022/05/16 12:29:08;;;;;;;3.25;1.85;;;22.10;51.40;;;;;;5067028;28;20024;-78
2022/05/16 12:31:48;;;;;;;2.05;1.60;;;22.10;51.50;;;;;;5065436;28;20025;-79
2022/05/16 12:34:29;;;;;;;;;;;22.10;51.30;;;;;;5071872;28;20037;-78
2022/05/16 12:37:00;;;;;;;2.28;1.50;;;22.10;51.50;;;;;;5072421;28;19912;-79
2022/05/16 12:39:51;;;;;;;2.67;1.80;;;22.20;51.40;;;;;;5073366;28;20037;-78
2022/05/16 12:42:52;;;;;;;3.22;1.90;;;22.20;51.50;;;;;;5073450;28;20032;-78
2022/05/16 12:45:46;;;;;;;4.07;1.90;;;22.10;51.40;;;;;;5064861;28;20111;-77
2022/05/16 12:48:35;;;;;;;2.75;1.65;;;22.20;51.50;;;;;;5062290;28;20107;-78
2022/05/16 12:51:19;;;;;;;3.10;1.90;;;22.10;51.50;;;;;;5072731;28;20075;-78
2022/05/16 12:54:03;;;;;;;5.28;1.67;;;22.20;51.50;;;;;;5072265;28;20037;-78
2022/05/16 12:56:53;;;;;;;2.28;1.65;;;22.20;51.50;;;;;;5072754;28;20477;-78
2022/05/16 12:59:37;;;;;;;2.60;1.83;;;22.20;51.50;;;;;;5071457;28;20032;-78
2022/05/16 13:02:21;;;;;;;3.03;1.85;;;22.20;51.60;;;;;;5059584;28;20124;-77
2022/05/16 13:05:05;;;;;;;3.63;2.03;;;22.10;51.60;;;;;;5071530;28;20496;-79
2022/05/16 13:07:46;;;;;;;2.67;1.80;;;22.10;51.50;;;;;;5072652;28;20386;-78
2022/05/16 13:10:34;;;;;;;3.35;1.70;;;22.20;51.60;;;;;;5071406;28;20526;-78
2022/05/16 13:13:06;;;;;;;2.72;1.73;;;22.10;51.60;;;;;;5071475;28;20134;-77
2022/05/16 13:15:53;;;;;;;3.38;2.00;;;22.10;51.60;;;;;;5072355;28;20033;-78
2022/05/16 13:18:30;;;;;;;3.15;1.80;;;22.10;51.50;;;;;;5055474;28;20029;-78
2022/05/16 13:21:00;;;;;;;2.78;1.65;;;22.10;51.50;;;;;;5047901;28;20037;-78
2022/05/16 13:23:26;;;;;;;2.45;1.73;;;22.10;51.70;;;;;;5030899;28;20033;-77
2022/05/16 13:31:35;;;;;;;3.58;1.90;;;22.10;51.60;;;;;;5032119;28;20026;-77
2022/05/16 13:34:04;;;;;;;3.35;1.70;;;22.10;51.60;;;;;;5038999;28;20028;-78
2022/05/16 13:36:31;;;;;;;2.83;1.70;;;22.10;51.60;;;;;;5068392;28;20024;-78
2022/05/16 13:38:59;;;;;;;2.72;1.75;;;22.10;51.60;;;;;;5054420;28;20028;-77
2022/05/16 13:41:28;;;;;;;2.28;1.63;;;22.10;51.60;;;;;;5071153;28;20473;-77
2022/05/16 13:43:54;;;;;;;2.72;1.77;;;22.10;51.50;;;;;;5071616;28;20086;-77
2022/05/16 13:46:21;;;;;;;2.58;1.80;;;22.10;51.50;;;;;;5054259;28;20485;-77
2022/05/16 13:48:55;;;;;;;3.05;1.70;;;22.10;51.40;;;;;;5066111;28;20106;-77
2022/05/16 13:51:21;;;;;;;2.17;1.73;;;22.10;51.50;;;;;;5046649;28;20027;-77
2022/05/16 13:53:47;;;;;;;3.28;1.85;;;22.10;51.50;;;;;;5071822;28;20033;-77
2022/05/16 13:56:13;;;;;;;2.55;1.70;;;22.10;51.60;;;;;;5073159;28;20085;-77